createdAt,value
2023-04-03T00:00:24.561Z,99145.68
2023-04-03T00:03:24.279Z,99150.74
2023-04-03T00:06:17.391Z,99149.93
2023-04-03T00:09:10.592Z,99152.59
2023-04-03T00:12:03.520Z,99148.19
2023-04-03T00:14:55.701Z,99149.33
2023-04-03T00:17:47.813Z,99151.85
2023-04-03T00:20:40.087Z,99153.72
2023-04-03T00:23:32.141Z,99152.71
2023-04-03T00:26:24.113Z,99157.09
2023-04-03T00:29:16.064Z,99154.74
2023-04-03T00:32:08.193Z,99160.78
2023-04-03T00:35:00.310Z,99157.12
2023-04-03T00:37:54.753Z,99157.97
2023-04-03T00:40:49.068Z,99158.48
2023-04-03T00:43:39.547Z,99156.82
2023-04-03T00:46:31.624Z,99160.05
2023-04-03T00:49:23.810Z,99158.03
2023-04-03T00:52:20.353Z,99157.79
2023-04-03T00:55:14.006Z,99158.48
2023-04-03T00:58:08.102Z,99160.77
2023-04-03T01:01:00.103Z,99160.10
2023-04-03T01:03:52.268Z,99156.86
2023-04-03T01:06:44.695Z,99160.18
2023-04-03T01:09:37.197Z,99161.46
2023-04-03T01:12:31.484Z,99168.41
2023-04-03T01:15:23.838Z,99167.89
2023-04-03T01:18:15.938Z,99167.09
2023-04-03T01:21:23.486Z,99166.71
2023-04-03T01:24:29.725Z,99170.19
2023-04-03T01:27:21.849Z,99170.52
2023-04-03T01:30:18.720Z,99172.75
2023-04-03T01:33:10.907Z,99175.45
2023-04-03T01:36:03.024Z,99180.13
2023-04-03T01:38:56.938Z,99180.20
2023-04-03T01:41:49.072Z,99185.02
2023-04-03T01:44:41.049Z,99184.70
2023-04-03T01:47:33.078Z,99184.39
2023-04-03T01:50:25.061Z,99188.16
2023-04-03T01:53:17.295Z,99187.61
2023-04-03T01:56:10.212Z,99187.56
2023-04-03T01:59:02.267Z,99187.05
2023-04-03T02:01:54.274Z,99190.23
2023-04-03T02:04:46.351Z,99194.88
2023-04-03T02:07:38.394Z,99196.44
2023-04-03T02:10:30.438Z,99201.60
2023-04-03T02:13:22.920Z,99199.23
2023-04-03T02:16:15.782Z,99199.42
2023-04-03T02:19:08.023Z,99197.92
2023-04-03T02:21:59.988Z,99201.55
2023-04-03T02:24:52.755Z,99203.61
2023-04-03T02:27:44.893Z,99201.94
2023-04-03T02:30:37.251Z,99206.14
2023-04-03T02:33:29.556Z,99205.48
2023-04-03T02:36:21.506Z,99206.77
2023-04-03T02:39:13.660Z,99208.11
2023-04-03T02:42:05.976Z,99210.28
2023-04-03T02:44:59.475Z,99210.48
2023-04-03T02:47:52.643Z,99209.96
2023-04-03T02:50:45.458Z,99208.32
2023-04-03T02:53:37.511Z,99208.96
2023-04-03T02:56:29.582Z,99207.41
2023-04-03T02:59:21.862Z,99208.06
2023-04-03T03:02:13.994Z,99213.95
2023-04-03T03:05:06.993Z,99210.88
2023-04-03T03:07:59.071Z,99216.10
2023-04-03T03:10:52.156Z,99213.30
2023-04-03T03:13:44.196Z,99213.00
2023-04-03T03:16:36.160Z,99212.52
2023-04-03T03:19:28.440Z,99217.30
2023-04-03T03:22:21.114Z,99221.13
2023-04-03T03:25:13.529Z,99221.55
2023-04-03T03:27:47.949Z,99223.67
2023-04-03T03:30:40.102Z,99230.76
2023-04-03T03:33:32.444Z,99231.36
2023-04-03T03:36:24.620Z,99235.02
2023-04-03T03:39:16.820Z,99233.45
2023-04-03T03:42:08.854Z,99234.66
2023-04-03T03:45:00.851Z,99238.79
2023-04-03T03:47:32.882Z,99245.29
2023-04-03T03:50:24.976Z,99244.91
2023-04-03T03:53:17.066Z,99244.32
2023-04-03T03:56:09.372Z,99244.43
2023-04-03T03:59:01.355Z,99245.60
2023-04-03T04:01:53.367Z,99247.80
2023-04-03T04:04:45.574Z,99249.08
2023-04-03T04:07:37.610Z,99248.60
2023-04-03T04:10:29.588Z,99252.55
2023-04-03T04:13:21.600Z,99250.97
2023-04-03T04:16:13.680Z,99252.43
2023-04-03T04:19:07.587Z,99256.88
2023-04-03T04:22:00.974Z,99255.55
2023-04-03T04:24:52.897Z,99260.05
2023-04-03T04:27:44.844Z,99263.19
2023-04-03T04:30:36.790Z,99263.46
2023-04-03T04:33:28.789Z,99270.98
2023-04-03T04:36:21.414Z,99268.44
2023-04-03T04:39:13.627Z,99270.33
2023-04-03T04:42:06.004Z,99272.70
2023-04-03T04:44:58.042Z,99280.67
2023-04-03T04:47:52.519Z,99280.45
2023-04-03T04:50:44.642Z,99280.11
2023-04-03T04:53:36.748Z,99289.55
2023-04-03T04:56:28.831Z,99292.39
2023-04-03T04:59:22.031Z,99294.45
2023-04-03T05:02:14.399Z,99302.95
2023-04-03T05:05:07.156Z,99305.92
2023-04-03T05:07:59.185Z,99307.85
2023-04-03T05:10:51.197Z,99308.91
2023-04-03T05:13:43.208Z,99315.61
2023-04-03T05:16:35.928Z,99318.31
2023-04-03T05:19:28.037Z,99318.58
2023-04-03T05:22:20.090Z,99322.17
2023-04-03T05:25:12.806Z,99326.75
2023-04-03T05:28:04.782Z,99331.64
2023-04-03T05:31:00.887Z,99333.42
2023-04-03T05:33:52.883Z,99333.95
2023-04-03T05:36:44.981Z,99336.86
2023-04-03T05:39:37.333Z,99338.20
2023-04-03T05:42:29.858Z,99340.59
2023-04-03T05:45:22.095Z,99344.95
2023-04-03T05:48:14.159Z,99346.65
2023-04-03T05:51:07.377Z,99345.04
2023-04-03T05:54:08.557Z,99342.73
2023-04-03T05:57:00.657Z,99343.84
2023-04-03T05:59:52.658Z,99348.76
2023-04-03T06:02:45.386Z,99350.61
2023-04-03T06:05:37.778Z,99355.58
2023-04-03T06:08:29.979Z,99350.30
2023-04-03T06:11:22.594Z,99351.14
2023-04-03T06:14:14.826Z,99352.91
2023-04-03T06:17:07.296Z,99360.31
2023-04-03T06:19:59.566Z,99362.20
2023-04-03T06:22:52.070Z,99367.54
2023-04-03T06:25:44.286Z,99371.30
2023-04-03T06:28:36.250Z,99374.85
2023-04-03T06:31:28.385Z,99364.33
2023-04-03T06:34:21.380Z,99367.34
2023-04-03T06:37:19.070Z,99369.04
2023-04-03T06:40:21.891Z,99376.95
2023-04-03T06:43:13.840Z,99377.14
2023-04-03T06:46:06.371Z,99379.18
2023-04-03T06:48:58.436Z,99381.06
2023-04-03T06:51:50.538Z,99388.21
2023-04-03T06:54:43.080Z,99388.80
2023-04-03T06:57:35.132Z,99397.91
2023-04-03T07:00:27.346Z,99399.38
2023-04-03T07:03:19.311Z,99397.48
2023-04-03T07:06:14.073Z,99402.73
2023-04-03T07:09:06.315Z,99410.23
2023-04-03T07:11:58.288Z,99410.27
2023-04-03T07:14:50.314Z,99413.44
2023-04-03T07:17:42.400Z,99421.09
2023-04-03T07:20:34.413Z,99424.88
2023-04-03T07:23:26.732Z,99425.05
2023-04-03T07:26:18.952Z,99424.91
2023-04-03T07:29:11.005Z,99436.00
2023-04-03T07:32:03.233Z,99437.91
2023-04-03T07:34:55.286Z,99433.92
2023-04-03T07:37:47.310Z,99433.11
2023-04-03T07:40:40.022Z,99434.46
2023-04-03T07:43:32.069Z,99437.69
2023-04-03T07:46:24.431Z,99433.88
2023-04-03T07:49:17.649Z,99433.66
2023-04-03T07:52:10.751Z,99436.77
2023-04-03T07:55:02.905Z,99443.79
2023-04-03T07:57:54.992Z,99441.33
2023-04-03T08:00:47.593Z,99440.84
2023-04-03T08:03:39.966Z,99441.60
2023-04-03T08:06:45.800Z,99439.83
2023-04-03T08:09:38.745Z,99436.96
2023-04-03T08:12:30.865Z,99437.11
2023-04-03T08:15:23.171Z,99431.86
2023-04-03T08:18:15.712Z,99437.38
2023-04-03T08:21:11.682Z,99437.70
2023-04-03T08:23:52.156Z,99437.70
2023-04-03T08:26:44.119Z,99442.08
2023-04-03T08:29:38.604Z,99445.45
2023-04-03T08:32:30.756Z,99446.15
2023-04-03T08:35:22.989Z,99449.35
2023-04-03T08:38:03.759Z,99451.82
2023-04-03T08:41:09.050Z,99449.13
2023-04-03T08:43:57.930Z,99452.63
2023-04-03T08:47:04.170Z,99457.54
2023-04-03T08:49:59.536Z,99461.29
2023-04-03T08:52:54.647Z,99456.57
2023-04-03T08:55:51.149Z,99457.48
2023-04-03T08:58:53.722Z,99457.13
2023-04-03T09:01:47.053Z,99459.96
2023-04-03T09:04:40.130Z,99452.48
2023-04-03T09:07:41.418Z,99454.00
2023-04-03T09:10:32.228Z,99459.48
2023-04-03T09:13:35.421Z,99458.21
2023-04-03T09:16:37.254Z,99458.80
2023-04-03T09:19:40.732Z,99460.54
2023-04-03T09:22:45.775Z,99458.81
2023-04-03T09:25:42.578Z,99456.33
2023-04-03T09:28:19.451Z,99458.81
2023-04-03T09:31:23.030Z,99465.27
2023-04-03T09:34:24.625Z,99465.13
2023-04-03T09:37:39.837Z,99463.80
2023-04-03T09:40:37.432Z,99464.83
2023-04-03T09:43:32.347Z,99458.45
2023-04-03T09:46:33.922Z,99460.23
2023-04-03T09:49:26.467Z,99465.54
2023-04-03T09:52:25.954Z,99467.06
2023-04-03T09:55:22.845Z,99465.17
2023-04-03T09:58:42.653Z,99466.55
2023-04-03T10:01:40.888Z,99469.42
2023-04-03T10:04:41.632Z,99470.61
2023-04-03T10:07:36.821Z,99469.69
2023-04-03T10:10:28.817Z,99466.09
2023-04-03T10:13:14.351Z,99466.29
2023-04-03T10:16:17.111Z,99458.88
2023-04-03T10:19:23.788Z,99452.72
2023-04-03T10:22:02.555Z,99455.52
2023-04-03T10:24:46.458Z,99454.93
2023-04-03T10:27:46.965Z,99448.27
2023-04-03T10:30:49.398Z,99451.03
2023-04-03T10:33:52.618Z,99449.83
2023-04-03T10:36:53.444Z,99453.61
2023-04-03T10:39:42.644Z,99457.16
2023-04-03T10:42:27.523Z,99461.63
2023-04-03T10:45:34.013Z,99458.20
2023-04-03T10:48:38.267Z,99451.63
2023-04-03T10:51:37.443Z,99448.50
2023-04-03T10:54:36.400Z,99447.10
2023-04-03T10:57:30.069Z,99444.80
2023-04-03T11:00:31.887Z,99441.82
2023-04-03T11:03:33.220Z,99439.68
2023-04-03T11:06:28.720Z,99438.45
2023-04-03T11:09:07.721Z,99439.48
2023-04-03T11:12:04.518Z,99441.58
2023-04-03T11:14:45.562Z,99433.73
2023-04-03T11:17:46.964Z,99440.15
2023-04-03T11:20:33.890Z,99450.54
2023-04-03T11:23:32.749Z,99447.55
2023-04-03T11:26:37.738Z,99446.13
2023-04-03T11:29:35.994Z,99445.58
2023-04-03T11:32:36.489Z,99451.20
2023-04-03T11:35:10.620Z,99446.90
2023-04-03T11:37:50.532Z,99444.30
2023-04-03T11:40:42.956Z,99449.39
2023-04-03T11:43:38.362Z,99446.35
2023-04-03T11:46:57.028Z,99439.34
2023-04-03T11:49:59.153Z,99447.88
2023-04-03T11:53:28.186Z,99446.13
2023-04-03T11:56:33.845Z,99440.11
2023-04-03T11:59:26.673Z,99437.03
2023-04-03T12:05:34.811Z,99436.90
2023-04-03T12:08:32.126Z,99436.61
2023-04-03T12:11:31.790Z,99438.11
2023-04-03T12:14:27.135Z,99445.29
2023-04-03T12:17:25.845Z,99448.65
2023-04-03T12:20:53.069Z,99454.66
2023-04-03T12:24:07.079Z,99452.61
2023-04-03T12:26:52.373Z,99455.92
2023-04-03T12:29:30.787Z,99456.80
2023-04-03T12:32:37.928Z,99452.58
2023-04-03T12:35:28.921Z,99448.48
2023-04-03T12:38:42.896Z,99446.23
2023-04-03T12:41:36.079Z,99442.95
2023-04-03T12:44:41.426Z,99444.49
2023-04-03T12:47:39.179Z,99443.06
2023-04-03T12:50:34.907Z,99439.29
2023-04-03T12:53:31.182Z,99438.96
2023-04-03T12:56:26.402Z,99438.25
2023-04-03T12:59:23.386Z,99428.24
2023-04-03T13:02:25.453Z,99425.73
2023-04-03T13:05:11.587Z,99419.91
2023-04-03T13:08:06.068Z,99420.27
2023-04-03T13:11:00.184Z,99414.00
2023-04-03T13:14:04.420Z,99418.22
2023-04-03T13:17:01.569Z,99413.63
2023-04-03T13:19:53.921Z,99417.42
2023-04-03T13:22:53.239Z,99426.77
2023-04-03T13:25:48.243Z,99423.31
2023-04-03T13:28:41.771Z,99419.92
2023-04-03T13:31:36.118Z,99421.70
2023-04-03T13:34:28.762Z,99424.09
2023-04-03T13:37:26.078Z,99431.06
2023-04-03T13:40:12.828Z,99430.60
2023-04-03T13:43:07.863Z,99438.64
2023-04-03T13:46:18.203Z,99437.23
2023-04-03T13:49:24.510Z,99438.98
2023-04-03T13:52:33.700Z,99434.61
2023-04-03T13:55:30.789Z,99431.16
2023-04-03T13:58:27.510Z,99436.09
2023-04-03T14:01:09.465Z,99445.02
2023-04-03T14:04:03.747Z,99442.06
2023-04-03T14:06:54.497Z,99438.10
2023-04-03T14:09:46.694Z,99429.67
2023-04-03T14:12:41.603Z,99432.14
2023-04-03T14:15:34.564Z,99435.27
2023-04-03T14:18:26.557Z,99437.21
2023-04-03T14:21:07.213Z,99441.01
2023-04-03T14:23:59.197Z,99433.83
2023-04-03T14:26:55.379Z,99430.07
2023-04-03T14:29:47.445Z,99424.70
2023-04-03T14:32:39.515Z,99427.15
2023-04-03T14:35:31.864Z,99433.71
2023-04-03T14:38:30.134Z,99433.45
2023-04-03T14:41:30.712Z,99434.41
2023-04-03T14:44:24.122Z,99430.16
2023-04-03T14:47:29.914Z,99441.18
2023-04-03T14:50:25.776Z,99439.15
2023-04-03T14:53:21.394Z,99445.86
2023-04-03T14:56:19.250Z,99445.64
2023-04-03T14:59:15.453Z,99450.45
2023-04-03T15:02:26.094Z,99450.70
2023-04-03T15:05:20.469Z,99448.05
2023-04-03T15:08:21.618Z,99447.80
2023-04-03T15:10:56.711Z,99453.85
2023-04-03T15:13:48.716Z,99458.17
2023-04-03T15:16:40.869Z,99453.40
2023-04-03T15:19:29.178Z,99455.58
2023-04-03T15:22:06.279Z,99451.29
2023-04-03T15:24:58.448Z,99451.18
2023-04-03T15:27:50.498Z,99450.74
2023-04-03T15:30:43.721Z,99449.67
2023-04-03T15:33:36.645Z,99454.55
2023-04-03T15:36:29.238Z,99449.63
2023-04-03T15:39:06.913Z,99448.06
2023-04-03T15:42:00.878Z,99448.62
2023-04-03T15:44:53.063Z,99449.36
2023-04-03T15:47:30.442Z,99448.27
2023-04-03T15:50:24.136Z,99458.83
2023-04-03T15:53:16.147Z,99455.41
2023-04-03T15:55:50.876Z,99455.92
2023-04-03T15:58:42.965Z,99455.39
2023-04-03T16:01:35.971Z,99453.41
2023-04-03T16:04:28.133Z,99455.07
2023-04-03T16:07:20.306Z,99455.04
2023-04-03T16:10:13.899Z,99453.05
2023-04-03T16:13:06.607Z,99451.50
2023-04-03T16:15:59.011Z,99455.80
2023-04-03T16:18:51.660Z,99459.09
2023-04-03T16:21:43.864Z,99464.06
2023-04-03T16:24:26.597Z,99463.93
2023-04-03T16:27:18.584Z,99462.14
2023-04-03T16:30:12.784Z,99463.06
2023-04-03T16:33:05.288Z,99464.38
2023-04-03T16:35:57.827Z,99467.51
2023-04-03T16:38:50.207Z,99469.72
2023-04-03T16:41:42.470Z,99471.05
2023-04-03T16:44:34.441Z,99468.06
2023-04-03T16:47:26.762Z,99469.23
2023-04-03T16:50:19.201Z,99470.45
2023-04-03T16:53:11.249Z,99471.48
2023-04-03T16:55:53.160Z,99472.48
2023-04-03T16:58:45.738Z,99471.60
2023-04-03T17:01:37.812Z,99473.92
2023-04-03T17:04:30.032Z,99470.45
2023-04-03T17:07:22.851Z,99473.09
2023-04-03T17:09:58.268Z,99474.92
2023-04-03T17:12:50.602Z,99476.35
2023-04-03T17:15:39.716Z,99476.50
2023-04-03T17:18:32.488Z,99482.77
2023-04-03T17:21:25.056Z,99486.36
2023-04-03T17:24:09.437Z,99490.10
2023-04-03T17:26:46.636Z,99488.80
2023-04-03T17:29:21.582Z,99496.55
2023-04-03T17:32:13.981Z,99498.73
2023-04-03T17:34:50.265Z,99502.38
2023-04-03T17:37:42.583Z,99501.90
2023-04-03T17:40:34.728Z,99503.16
2023-04-03T17:43:27.141Z,99507.29
2023-04-03T17:46:11.992Z,99506.23
2023-04-03T17:49:07.291Z,99503.45
2023-04-03T17:51:59.403Z,99505.70
2023-04-03T17:54:51.548Z,99503.33
2023-04-03T17:57:26.318Z,99508.71
2023-04-03T18:00:20.672Z,99509.02
2023-04-03T18:02:56.402Z,99509.02
2023-04-03T18:05:32.372Z,99511.64
2023-04-03T18:08:14.888Z,99514.90
2023-04-03T18:11:07.373Z,99515.19
2023-04-03T18:14:02.491Z,99516.42
2023-04-03T18:16:57.298Z,99515.79
2023-04-03T18:19:51.685Z,99513.46
2023-04-03T18:22:44.428Z,99513.98
2023-04-03T18:25:37.926Z,99520.17
2023-04-03T18:28:32.220Z,99527.45
2023-04-03T18:31:31.085Z,99529.69
2023-04-03T18:34:23.342Z,99533.42
2023-04-03T18:37:16.520Z,99535.43
2023-04-03T18:40:10.167Z,99534.86
2023-04-03T18:42:51.805Z,99539.11
2023-04-03T18:45:41.281Z,99538.63
2023-04-03T18:48:34.108Z,99536.83
2023-04-03T18:51:27.502Z,99540.25
2023-04-03T18:54:20.522Z,99533.66
2023-04-03T18:57:12.702Z,99532.65
2023-04-03T19:00:05.486Z,99531.92
2023-04-03T19:02:58.289Z,99530.23
2023-04-03T19:05:51.331Z,99533.17
2023-04-03T19:08:43.692Z,99529.38
2023-04-03T19:11:36.464Z,99534.47
2023-04-03T19:14:16.211Z,99529.17
2023-04-03T19:17:09.272Z,99527.38
2023-04-03T19:20:01.514Z,99529.13
2023-04-03T19:22:55.205Z,99527.73
2023-04-03T19:25:47.494Z,99526.27
2023-04-03T19:28:40.149Z,99527.77
2023-04-03T19:31:20.751Z,99523.73
2023-04-03T19:34:13.189Z,99519.54
2023-04-03T19:36:55.302Z,99524.09
2023-04-03T19:39:47.483Z,99525.07
2023-04-03T19:42:42.870Z,99525.16
2023-04-03T19:45:17.994Z,99530.89
2023-04-03T19:48:11.241Z,99526.04
2023-04-03T19:50:54.039Z,99527.92
2023-04-03T19:53:47.314Z,99525.50
2023-04-03T19:56:30.720Z,99524.39
2023-04-03T19:59:22.925Z,99526.09
2023-04-03T20:02:14.981Z,99527.28
2023-04-03T20:05:08.072Z,99524.57
2023-04-03T20:07:51.596Z,99521.90
2023-04-03T20:10:43.727Z,99522.45
2023-04-03T20:13:35.889Z,99517.31
2023-04-03T20:16:28.240Z,99517.80
2023-04-03T20:19:21.535Z,99512.85
2023-04-03T20:21:58.402Z,99515.55
2023-04-03T20:24:40.045Z,99516.13
2023-04-03T20:27:16.403Z,99515.33
2023-04-03T20:29:57.125Z,99514.84
2023-04-03T20:32:49.996Z,99513.13
2023-04-03T20:35:42.254Z,99517.41
2023-04-03T20:38:18.001Z,99516.48
2023-04-03T20:40:52.877Z,99517.83
2023-04-03T20:43:46.249Z,99519.23
2023-04-03T20:46:52.332Z,99522.14
2023-04-03T20:49:45.533Z,99524.34
2023-04-03T20:52:37.664Z,99526.55
2023-04-03T20:55:30.621Z,99527.44
2023-04-03T20:58:24.960Z,99528.34
2023-04-03T21:01:02.426Z,99529.90
2023-04-03T21:04:02.409Z,99529.39
2023-04-03T21:07:28.878Z,99527.52
2023-04-03T21:10:55.352Z,99535.23
2023-04-03T21:14:27.712Z,99538.19
2023-04-03T21:17:17.131Z,99535.77
2023-04-03T21:20:09.449Z,99538.51
2023-04-03T21:23:01.594Z,99535.64
2023-04-03T21:25:53.661Z,99535.58
2023-04-03T21:28:46.371Z,99542.56
2023-04-03T21:31:54.492Z,99544.13
2023-04-03T21:34:46.527Z,99546.06
2023-04-03T21:37:38.948Z,99549.98
2023-04-03T21:40:31.683Z,99551.09
2023-04-03T21:43:13.783Z,99555.34
2023-04-03T21:46:06.292Z,99554.03
2023-04-03T21:48:58.671Z,99544.95
2023-04-03T21:51:42.904Z,99549.11
2023-04-03T21:54:34.751Z,99545.65
2023-04-03T21:57:26.697Z,99544.45
2023-04-03T22:00:19.590Z,99545.05
2023-04-03T22:03:13.228Z,99543.59
2023-04-03T22:06:05.719Z,99541.20
2023-04-03T22:08:58.357Z,99540.39
2023-04-03T22:11:46.077Z,99539.36
2023-04-03T22:14:38.806Z,99535.53
2023-04-03T22:17:21.335Z,99534.31
2023-04-03T22:20:02.184Z,99534.45
2023-04-03T22:22:54.508Z,99534.41
2023-04-03T22:25:57.424Z,99528.59
2023-04-03T22:28:50.011Z,99524.40
2023-04-03T22:31:31.080Z,99524.14
2023-04-03T22:34:10.403Z,99522.24
2023-04-03T22:37:02.365Z,99518.02
2023-04-03T22:39:54.526Z,99521.55
2023-04-03T22:42:35.379Z,99519.37
2023-04-03T22:45:27.809Z,99518.00
2023-04-03T22:48:19.908Z,99513.63
2023-04-03T22:51:12.278Z,99508.09
2023-04-03T22:54:04.662Z,99507.63
2023-04-03T22:56:39.494Z,99504.88
2023-04-03T22:59:31.995Z,99504.20
2023-04-03T23:02:24.115Z,99504.25
2023-04-03T23:04:58.762Z,99500.90
2023-04-03T23:07:33.596Z,99494.77
2023-04-03T23:10:25.888Z,99490.09
2023-04-03T23:13:17.983Z,99482.95
2023-04-03T23:16:10.147Z,99480.17
2023-04-03T23:19:02.564Z,99481.83
2023-04-03T23:21:54.557Z,99475.00
2023-04-03T23:24:46.759Z,99470.63
2023-04-03T23:27:38.876Z,99467.70
2023-04-03T23:30:30.854Z,99464.10
2023-04-03T23:33:22.883Z,99460.95
2023-04-03T23:36:16.153Z,99457.95
2023-04-03T23:39:08.604Z,99454.27
2023-04-03T23:42:00.987Z,99454.79
2023-04-03T23:44:53.861Z,99447.02
2023-04-03T23:47:31.608Z,99448.44
2023-04-03T23:50:23.851Z,99443.85
2023-04-03T23:52:58.701Z,99437.52
2023-04-03T23:55:50.836Z,99433.77
2023-04-03T23:58:42.997Z,99435.27
